Terminal Aerodrome Forecast
Issued by NWS

Home | Current Version | Previous Version | Text Only | Print | Product List | Glossary On
Versions: 1 2 3 4 5 6 7 8 9 10 11 12 13 14 15 16 17 18 19 20 21 22 23 24 25 26 27 28
000
FTUS44 KHGX 281129
TAFLBX
TAF
KLBX 281129Z 2812/2912 16008KT P6SM SCT010 BKN020
     FM281600 15012KT P6SM SCT025
     FM281800 15018G28KT P6SM FEW035 SCT250
     FM290300 16015G25KT P6SM SCT015 BKN022
     FM290900 16015G25KT P6SM VCSH SCT007 OVC015=

USA.gov is the U.S. government's official web portal to all federal, state and local government web resources and services.